sensor_id;sensor_type;location;lat;lon;timestamp;temperature;humidity
27896;DHT22;15241;48.374;10.876;2022-11-20T00:01:25;7.00;99.90
27896;DHT22;15241;48.374;10.876;2022-11-20T00:06:25;6.90;99.90
27896;DHT22;15241;48.374;10.876;2022-11-20T00:11:26;6.90;99.90
27896;DHT22;15241;48.374;10.876;2022-11-20T00:16:28;6.90;99.90
27896;DHT22;15241;48.374;10.876;2022-11-20T00:21:28;7.00;99.90
27896;DHT22;15241;48.374;10.876;2022-11-20T00:26:28;6.90;99.90
27896;DHT22;15241;48.374;10.876;2022-11-20T00:31:27;6.80;99.90
27896;DHT22;15241;48.374;10.876;2022-11-20T00:36:28;6.90;99.90
27896;DHT22;15241;48.374;10.876;2022-11-20T00:41:28;6.90;99.90
27896;DHT22;15241;48.374;10.876;2022-11-20T00:46:28;6.80;99.90
27896;DHT22;15241;48.374;10.876;2022-11-20T00:51:28;6.70;99.90
27896;DHT22;15241;48.374;10.876;2022-11-20T00:56:27;6.70;99.90
27896;DHT22;15241;48.374;10.876;2022-11-20T01:01:27;6.60;99.90
27896;DHT22;15241;48.374;10.876;2022-11-20T01:06:28;6.60;99.90
27896;DHT22;15241;48.374;10.876;2022-11-20T01:11:29;6.70;99.90
27896;DHT22;15241;48.374;10.876;2022-11-20T01:16:30;6.60;99.90
27896;DHT22;15241;48.374;10.876;2022-11-20T01:21:30;6.70;99.90
27896;DHT22;15241;48.374;10.876;2022-11-20T01:26:31;6.70;99.90
27896;DHT22;15241;48.374;10.876;2022-11-20T01:36:40;6.60;99.90
27896;DHT22;15241;48.374;10.876;2022-11-20T01:41:39;6.60;99.90
27896;DHT22;15241;48.374;10.876;2022-11-20T01:46:40;6.60;99.90
27896;DHT22;15241;48.374;10.876;2022-11-20T01:51:42;6.60;99.90
27896;DHT22;15241;48.374;10.876;2022-11-20T01:56:44;6.60;99.90
27896;DHT22;15241;48.374;10.876;2022-11-20T02:01:44;6.60;99.90
27896;DHT22;15241;48.374;10.876;2022-11-20T02:06:45;6.60;99.90
27896;DHT22;15241;48.374;10.876;2022-11-20T02:11:45;6.40;99.90
27896;DHT22;15241;48.374;10.876;2022-11-20T02:16:46;6.40;99.90
27896;DHT22;15241;48.374;10.876;2022-11-20T02:21:49;6.40;99.90
27896;DHT22;15241;48.374;10.876;2022-11-20T02:31:59;6.30;99.90
27896;DHT22;15241;48.374;10.876;2022-11-20T02:37:00;6.30;99.90
27896;DHT22;15241;48.374;10.876;2022-11-20T02:42:00;6.40;99.90
27896;DHT22;15241;48.374;10.876;2022-11-20T02:46:59;6.30;99.90
27896;DHT22;15241;48.374;10.876;2022-11-20T02:51:58;6.20;99.90
27896;DHT22;15241;48.374;10.876;2022-11-20T02:56:57;6.10;99.90
27896;DHT22;15241;48.374;10.876;2022-11-20T03:01:56;6.10;99.90
27896;DHT22;15241;48.374;10.876;2022-11-20T03:06:55;6.20;99.90
27896;DHT22;15241;48.374;10.876;2022-11-20T03:11:54;6.20;99.90
27896;DHT22;15241;48.374;10.876;2022-11-20T03:16:53;6.20;99.90
27896;DHT22;15241;48.374;10.876;2022-11-20T03:21:52;6.30;99.90
27896;DHT22;15241;48.374;10.876;2022-11-20T03:26:51;6.20;99.90
27896;DHT22;15241;48.374;10.876;2022-11-20T03:31:49;6.30;99.90
27896;DHT22;15241;48.374;10.876;2022-11-20T03:36:48;6.30;99.90
27896;DHT22;15241;48.374;10.876;2022-11-20T03:41:47;6.30;99.90
27896;DHT22;15241;48.374;10.876;2022-11-20T03:46:46;6.40;99.90
27896;DHT22;15241;48.374;10.876;2022-11-20T03:51:46;6.40;99.90
27896;DHT22;15241;48.374;10.876;2022-11-20T03:56:45;6.40;99.90
27896;DHT22;15241;48.374;10.876;2022-11-20T04:01:44;6.40;99.90
27896;DHT22;15241;48.374;10.876;2022-11-20T04:06:43;6.30;99.90
27896;DHT22;15241;48.374;10.876;2022-11-20T04:11:42;6.20;99.90
27896;DHT22;15241;48.374;10.876;2022-11-20T04:16:41;6.30;99.90
27896;DHT22;15241;48.374;10.876;2022-11-20T04:21:40;6.30;99.90
27896;DHT22;15241;48.374;10.876;2022-11-20T04:26:40;6.30;99.90
27896;DHT22;15241;48.374;10.876;2022-11-20T04:31:39;6.30;99.90
27896;DHT22;15241;48.374;10.876;2022-11-20T04:36:38;6.30;99.90
27896;DHT22;15241;48.374;10.876;2022-11-20T04:41:38;6.40;99.90
27896;DHT22;15241;48.374;10.876;2022-11-20T04:46:39;6.40;99.90
27896;DHT22;15241;48.374;10.876;2022-11-20T04:51:38;6.50;99.90
27896;DHT22;15241;48.374;10.876;2022-11-20T04:56:37;6.50;99.90
27896;DHT22;15241;48.374;10.876;2022-11-20T05:06:44;6.50;99.90
27896;DHT22;15241;48.374;10.876;2022-11-20T05:11:43;6.40;99.90
27896;DHT22;15241;48.374;10.876;2022-11-20T05:16:42;6.30;99.90
27896;DHT22;15241;48.374;10.876;2022-11-20T05:21:41;6.40;99.90
27896;DHT22;15241;48.374;10.876;2022-11-20T05:26:40;6.30;99.90
27896;DHT22;15241;48.374;10.876;2022-11-20T05:31:40;6.30;99.90
27896;DHT22;15241;48.374;10.876;2022-11-20T05:36:39;6.30;99.90
27896;DHT22;15241;48.374;10.876;2022-11-20T05:41:38;6.30;99.90
27896;DHT22;15241;48.374;10.876;2022-11-20T05:46:37;6.30;99.90
27896;DHT22;15241;48.374;10.876;2022-11-20T05:51:36;6.30;99.90
27896;DHT22;15241;48.374;10.876;2022-11-20T05:56:34;6.30;99.90
27896;DHT22;15241;48.374;10.876;2022-11-20T06:01:33;6.20;99.90
27896;DHT22;15241;48.374;10.876;2022-11-20T06:06:32;6.30;99.90
27896;DHT22;15241;48.374;10.876;2022-11-20T06:11:31;6.30;99.90
27896;DHT22;15241;48.374;10.876;2022-11-20T06:16:30;6.30;99.90
27896;DHT22;15241;48.374;10.876;2022-11-20T06:21:29;6.30;99.90
27896;DHT22;15241;48.374;10.876;2022-11-20T06:26:28;6.40;99.90
27896;DHT22;15241;48.374;10.876;2022-11-20T06:31:27;6.50;99.90
27896;DHT22;15241;48.374;10.876;2022-11-20T06:36:26;6.50;99.90
27896;DHT22;15241;48.374;10.876;2022-11-20T06:41:25;6.50;99.90
27896;DHT22;15241;48.374;10.876;2022-11-20T06:46:24;6.60;99.90
27896;DHT22;15241;48.374;10.876;2022-11-20T06:51:23;6.50;99.90
27896;DHT22;15241;48.374;10.876;2022-11-20T06:56:22;6.50;99.90
27896;DHT22;15241;48.374;10.876;2022-11-20T07:01:21;6.50;99.90
27896;DHT22;15241;48.374;10.876;2022-11-20T07:06:20;6.60;99.90
27896;DHT22;15241;48.374;10.876;2022-11-20T07:11:19;6.60;99.90
27896;DHT22;15241;48.374;10.876;2022-11-20T07:16:18;6.60;99.90
27896;DHT22;15241;48.374;10.876;2022-11-20T07:21:17;6.60;99.90
27896;DHT22;15241;48.374;10.876;2022-11-20T07:26:15;6.70;99.90
27896;DHT22;15241;48.374;10.876;2022-11-20T07:31:14;6.70;99.90
27896;DHT22;15241;48.374;10.876;2022-11-20T07:36:13;6.70;99.90
27896;DHT22;15241;48.374;10.876;2022-11-20T07:41:12;6.80;99.90
27896;DHT22;15241;48.374;10.876;2022-11-20T07:46:12;6.80;99.90
27896;DHT22;15241;48.374;10.876;2022-11-20T07:51:11;6.90;99.90
27896;DHT22;15241;48.374;10.876;2022-11-20T07:56:10;6.90;99.90
27896;DHT22;15241;48.374;10.876;2022-11-20T08:01:09;7.00;99.90
27896;DHT22;15241;48.374;10.876;2022-11-20T08:06:08;7.00;99.90
27896;DHT22;15241;48.374;10.876;2022-11-20T08:11:07;7.10;99.90
27896;DHT22;15241;48.374;10.876;2022-11-20T08:21:14;7.30;99.90
27896;DHT22;15241;48.374;10.876;2022-11-20T08:31:21;7.70;99.90
27896;DHT22;15241;48.374;10.876;2022-11-20T08:36:21;7.70;99.90
27896;DHT22;15241;48.374;10.876;2022-11-20T08:41:20;7.60;99.90
27896;DHT22;15241;48.374;10.876;2022-11-20T08:46:19;7.40;99.90
27896;DHT22;15241;48.374;10.876;2022-11-20T08:51:19;7.70;99.90
27896;DHT22;15241;48.374;10.876;2022-11-20T08:56:18;7.70;99.90
27896;DHT22;15241;48.374;10.876;2022-11-20T09:01:17;7.70;99.90
27896;DHT22;15241;48.374;10.876;2022-11-20T09:06:17;7.80;99.90
27896;DHT22;15241;48.374;10.876;2022-11-20T09:11:16;7.70;99.90
27896;DHT22;15241;48.374;10.876;2022-11-20T09:16:16;7.80;99.90
27896;DHT22;15241;48.374;10.876;2022-11-20T09:21:15;7.80;99.90
27896;DHT22;15241;48.374;10.876;2022-11-20T09:26:14;7.90;99.90
27896;DHT22;15241;48.374;10.876;2022-11-20T09:36:25;7.90;99.90
27896;DHT22;15241;48.374;10.876;2022-11-20T09:41:43;8.30;99.90
27896;DHT22;15241;48.374;10.876;2022-11-20T09:51:57;8.60;99.90
27896;DHT22;15241;48.374;10.876;2022-11-20T09:56:58;8.80;99.90
27896;DHT22;15241;48.374;10.876;2022-11-20T10:01:57;8.80;99.90
27896;DHT22;15241;48.374;10.876;2022-11-20T10:07:02;8.80;99.90
27896;DHT22;15241;48.374;10.876;2022-11-20T10:12:03;8.80;99.90
27896;DHT22;15241;48.374;10.876;2022-11-20T10:22:19;8.50;99.90
27896;DHT22;15241;48.374;10.876;2022-11-20T10:27:44;8.40;99.90
27896;DHT22;15241;48.374;10.876;2022-11-20T10:32:45;8.30;99.90
27896;DHT22;15241;48.374;10.876;2022-11-20T10:37:49;8.50;99.90
27896;DHT22;15241;48.374;10.876;2022-11-20T10:42:49;8.60;99.90
27896;DHT22;15241;48.374;10.876;2022-11-20T10:47:48;8.50;99.90
27896;DHT22;15241;48.374;10.876;2022-11-20T10:52:51;8.30;99.90
27896;DHT22;15241;48.374;10.876;2022-11-20T10:57:54;8.20;99.90
27896;DHT22;15241;48.374;10.876;2022-11-20T11:02:55;8.30;99.90
27896;DHT22;15241;48.374;10.876;2022-11-20T11:07:56;8.40;99.90
27896;DHT22;15241;48.374;10.876;2022-11-20T11:12:55;8.30;99.90
27896;DHT22;15241;48.374;10.876;2022-11-20T11:17:54;8.20;99.90
27896;DHT22;15241;48.374;10.876;2022-11-20T11:22:55;8.60;99.90
27896;DHT22;15241;48.374;10.876;2022-11-20T11:27:55;8.70;99.90
27896;DHT22;15241;48.374;10.876;2022-11-20T11:33:05;8.60;99.90
27896;DHT22;15241;48.374;10.876;2022-11-20T11:38:06;8.50;99.90
27896;DHT22;15241;48.374;10.876;2022-11-20T11:43:15;8.90;99.90
27896;DHT22;15241;48.374;10.876;2022-11-20T11:48:09;8.90;99.90
27896;DHT22;15241;48.374;10.876;2022-11-20T11:53:12;8.60;99.90
27896;DHT22;15241;48.374;10.876;2022-11-20T11:58:18;8.50;99.90
27896;DHT22;15241;48.374;10.876;2022-11-20T12:03:21;8.30;99.90
27896;DHT22;15241;48.374;10.876;2022-11-20T12:13:44;8.30;99.90
27896;DHT22;15241;48.374;10.876;2022-11-20T12:18:46;8.10;99.90
27896;DHT22;15241;48.374;10.876;2022-11-20T12:29:05;8.10;99.90
27896;DHT22;15241;48.374;10.876;2022-11-20T12:39:42;8.10;99.90
27896;DHT22;15241;48.374;10.876;2022-11-20T12:44:54;8.00;99.90
27896;DHT22;15241;48.374;10.876;2022-11-20T12:49:56;8.00;99.90
27896;DHT22;15241;48.374;10.876;2022-11-20T12:55:11;8.00;99.90
27896;DHT22;15241;48.374;10.876;2022-11-20T13:00:14;8.00;99.90
27896;DHT22;15241;48.374;10.876;2022-11-20T13:05:20;8.10;99.90
27896;DHT22;15241;48.374;10.876;2022-11-20T13:10:23;8.00;99.90
27896;DHT22;15241;48.374;10.876;2022-11-20T13:15:38;8.00;99.90
27896;DHT22;15241;48.374;10.876;2022-11-20T13:20:36;8.00;99.90
27896;DHT22;15241;48.374;10.876;2022-11-20T13:25:37;7.90;99.90
27896;DHT22;15241;48.374;10.876;2022-11-20T13:30:48;7.80;99.90
27896;DHT22;15241;48.374;10.876;2022-11-20T13:35:41;7.70;99.90
27896;DHT22;15241;48.374;10.876;2022-11-20T13:40:50;7.70;99.90
27896;DHT22;15241;48.374;10.876;2022-11-20T13:45:57;7.60;99.90
27896;DHT22;15241;48.374;10.876;2022-11-20T13:51:16;7.70;99.90
27896;DHT22;15241;48.374;10.876;2022-11-20T14:01:35;7.70;99.90
27896;DHT22;15241;48.374;10.876;2022-11-20T14:11:50;7.80;99.90
27896;DHT22;15241;48.374;10.876;2022-11-20T14:16:49;7.80;99.90
27896;DHT22;15241;48.374;10.876;2022-11-20T14:21:49;7.80;99.90
27896;DHT22;15241;48.374;10.876;2022-11-20T14:26:51;8.00;99.90
27896;DHT22;15241;48.374;10.876;2022-11-20T14:36:58;8.10;99.90
27896;DHT22;15241;48.374;10.876;2022-11-20T14:41:58;8.00;99.90
27896;DHT22;15241;48.374;10.876;2022-11-20T14:46:57;8.00;99.90
27896;DHT22;15241;48.374;10.876;2022-11-20T14:52:01;8.10;99.90
27896;DHT22;15241;48.374;10.876;2022-11-20T14:57:02;8.10;99.90
27896;DHT22;15241;48.374;10.876;2022-11-20T15:02:04;8.20;99.90
27896;DHT22;15241;48.374;10.876;2022-11-20T15:07:04;8.10;99.90
27896;DHT22;15241;48.374;10.876;2022-11-20T15:12:04;8.00;99.90
27896;DHT22;15241;48.374;10.876;2022-11-20T15:17:03;7.90;99.90
27896;DHT22;15241;48.374;10.876;2022-11-20T15:22:02;7.90;99.90
27896;DHT22;15241;48.374;10.876;2022-11-20T15:27:01;7.80;99.90
27896;DHT22;15241;48.374;10.876;2022-11-20T15:32:00;7.70;99.90
27896;DHT22;15241;48.374;10.876;2022-11-20T15:36:59;7.60;99.90
27896;DHT22;15241;48.374;10.876;2022-11-20T15:41:57;7.40;99.90
27896;DHT22;15241;48.374;10.876;2022-11-20T15:46:57;7.50;99.90
27896;DHT22;15241;48.374;10.876;2022-11-20T15:51:57;7.40;99.90
27896;DHT22;15241;48.374;10.876;2022-11-20T15:56:56;7.40;99.90
27896;DHT22;15241;48.374;10.876;2022-11-20T16:01:55;7.40;99.90
27896;DHT22;15241;48.374;10.876;2022-11-20T16:06:54;7.50;99.90
27896;DHT22;15241;48.374;10.876;2022-11-20T16:11:53;7.30;99.90
27896;DHT22;15241;48.374;10.876;2022-11-20T16:17:11;7.30;99.90
27896;DHT22;15241;48.374;10.876;2022-11-20T16:22:11;7.30;99.90
27896;DHT22;15241;48.374;10.876;2022-11-20T16:32:18;7.20;99.90
27896;DHT22;15241;48.374;10.876;2022-11-20T16:37:17;7.30;99.90
27896;DHT22;15241;48.374;10.876;2022-11-20T16:42:16;7.40;99.90
27896;DHT22;15241;48.374;10.876;2022-11-20T16:47:14;7.20;99.90
27896;DHT22;15241;48.374;10.876;2022-11-20T16:52:14;7.10;99.90
27896;DHT22;15241;48.374;10.876;2022-11-20T16:57:13;7.10;99.90
27896;DHT22;15241;48.374;10.876;2022-11-20T17:02:12;7.10;99.90
27896;DHT22;15241;48.374;10.876;2022-11-20T17:07:11;7.10;99.90
27896;DHT22;15241;48.374;10.876;2022-11-20T17:12:10;7.00;99.90
27896;DHT22;15241;48.374;10.876;2022-11-20T17:17:09;7.00;99.90
27896;DHT22;15241;48.374;10.876;2022-11-20T17:22:08;6.90;99.90
27896;DHT22;15241;48.374;10.876;2022-11-20T17:27:07;6.90;99.90
27896;DHT22;15241;48.374;10.876;2022-11-20T17:32:06;6.90;99.90
27896;DHT22;15241;48.374;10.876;2022-11-20T17:37:05;6.80;99.90
27896;DHT22;15241;48.374;10.876;2022-11-20T17:42:05;6.70;99.90
27896;DHT22;15241;48.374;10.876;2022-11-20T17:47:05;6.70;99.90
27896;DHT22;15241;48.374;10.876;2022-11-20T17:52:04;6.50;99.90
27896;DHT22;15241;48.374;10.876;2022-11-20T17:57:03;6.60;99.90
27896;DHT22;15241;48.374;10.876;2022-11-20T18:02:03;6.60;99.90
27896;DHT22;15241;48.374;10.876;2022-11-20T18:07:02;6.50;99.90
27896;DHT22;15241;48.374;10.876;2022-11-20T18:12:01;6.40;99.90
27896;DHT22;15241;48.374;10.876;2022-11-20T18:17:02;6.40;99.90
27896;DHT22;15241;48.374;10.876;2022-11-20T18:22:03;6.30;99.90
27896;DHT22;15241;48.374;10.876;2022-11-20T18:27:02;6.30;99.90
27896;DHT22;15241;48.374;10.876;2022-11-20T18:32:01;6.30;99.90
27896;DHT22;15241;48.374;10.876;2022-11-20T18:37:00;6.20;99.90
27896;DHT22;15241;48.374;10.876;2022-11-20T18:41:59;6.10;99.90
27896;DHT22;15241;48.374;10.876;2022-11-20T18:46:58;6.00;99.90
27896;DHT22;15241;48.374;10.876;2022-11-20T18:51:57;6.00;99.90
27896;DHT22;15241;48.374;10.876;2022-11-20T18:56:56;5.90;99.90
27896;DHT22;15241;48.374;10.876;2022-11-20T19:01:55;6.00;99.90
27896;DHT22;15241;48.374;10.876;2022-11-20T19:06:54;6.00;99.90
27896;DHT22;15241;48.374;10.876;2022-11-20T19:11:53;6.00;99.90
27896;DHT22;15241;48.374;10.876;2022-11-20T19:16:52;6.00;99.90
27896;DHT22;15241;48.374;10.876;2022-11-20T19:21:52;6.00;99.90
27896;DHT22;15241;48.374;10.876;2022-11-20T19:26:51;6.00;99.90
27896;DHT22;15241;48.374;10.876;2022-11-20T19:31:50;6.00;99.90
27896;DHT22;15241;48.374;10.876;2022-11-20T19:36:51;6.00;99.90
27896;DHT22;15241;48.374;10.876;2022-11-20T19:41:49;6.10;99.90
27896;DHT22;15241;48.374;10.876;2022-11-20T19:46:48;6.10;99.90
27896;DHT22;15241;48.374;10.876;2022-11-20T19:51:48;6.10;99.90
27896;DHT22;15241;48.374;10.876;2022-11-20T19:56:47;6.00;99.90
27896;DHT22;15241;48.374;10.876;2022-11-20T20:01:46;6.00;99.90
27896;DHT22;15241;48.374;10.876;2022-11-20T20:06:45;5.90;99.90
27896;DHT22;15241;48.374;10.876;2022-11-20T20:11:45;6.10;99.90
27896;DHT22;15241;48.374;10.876;2022-11-20T20:16:44;6.10;99.90
27896;DHT22;15241;48.374;10.876;2022-11-20T20:26:53;6.00;99.90
27896;DHT22;15241;48.374;10.876;2022-11-20T20:31:52;5.90;99.90
27896;DHT22;15241;48.374;10.876;2022-11-20T20:36:51;5.90;99.90
27896;DHT22;15241;48.374;10.876;2022-11-20T20:41:50;5.80;99.90
27896;DHT22;15241;48.374;10.876;2022-11-20T20:46:51;5.90;99.90
27896;DHT22;15241;48.374;10.876;2022-11-20T20:51:50;5.90;99.90
27896;DHT22;15241;48.374;10.876;2022-11-20T20:56:50;6.00;99.90
27896;DHT22;15241;48.374;10.876;2022-11-20T21:01:49;6.00;99.90
27896;DHT22;15241;48.374;10.876;2022-11-20T21:06:48;6.00;99.90
27896;DHT22;15241;48.374;10.876;2022-11-20T21:11:47;6.00;99.90
27896;DHT22;15241;48.374;10.876;2022-11-20T21:16:46;5.90;99.90
27896;DHT22;15241;48.374;10.876;2022-11-20T21:26:52;6.10;99.90
27896;DHT22;15241;48.374;10.876;2022-11-20T21:31:51;6.10;99.90
27896;DHT22;15241;48.374;10.876;2022-11-20T21:36:51;6.00;99.90
27896;DHT22;15241;48.374;10.876;2022-11-20T21:46:56;5.90;99.90
27896;DHT22;15241;48.374;10.876;2022-11-20T21:51:54;6.00;99.90
27896;DHT22;15241;48.374;10.876;2022-11-20T21:56:53;5.80;99.90
27896;DHT22;15241;48.374;10.876;2022-11-20T22:01:52;5.80;99.90
27896;DHT22;15241;48.374;10.876;2022-11-20T22:06:51;5.70;99.90
27896;DHT22;15241;48.374;10.876;2022-11-20T22:11:50;5.70;99.90
27896;DHT22;15241;48.374;10.876;2022-11-20T22:16:50;5.60;99.90
27896;DHT22;15241;48.374;10.876;2022-11-20T22:21:50;5.50;99.90
27896;DHT22;15241;48.374;10.876;2022-11-20T22:31:56;5.50;99.90
27896;DHT22;15241;48.374;10.876;2022-11-20T22:36:55;5.20;99.90
27896;DHT22;15241;48.374;10.876;2022-11-20T22:41:54;5.20;99.90
27896;DHT22;15241;48.374;10.876;2022-11-20T22:46:53;5.20;99.90
27896;DHT22;15241;48.374;10.876;2022-11-20T22:51:52;5.20;99.90
27896;DHT22;15241;48.374;10.876;2022-11-20T22:56:51;5.10;99.90
27896;DHT22;15241;48.374;10.876;2022-11-20T23:01:50;5.10;99.90
27896;DHT22;15241;48.374;10.876;2022-11-20T23:06:49;5.00;99.90
27896;DHT22;15241;48.374;10.876;2022-11-20T23:11:48;5.00;99.90
27896;DHT22;15241;48.374;10.876;2022-11-20T23:16:46;5.00;99.90
27896;DHT22;15241;48.374;10.876;2022-11-20T23:21:45;4.90;99.90
27896;DHT22;15241;48.374;10.876;2022-11-20T23:26:44;4.90;99.90
27896;DHT22;15241;48.374;10.876;2022-11-20T23:31:43;5.00;99.90
27896;DHT22;15241;48.374;10.876;2022-11-20T23:36:42;5.10;99.90
27896;DHT22;15241;48.374;10.876;2022-11-20T23:41:41;5.20;99.90
27896;DHT22;15241;48.374;10.876;2022-11-20T23:46:40;5.20;99.90
27896;DHT22;15241;48.374;10.876;2022-11-20T23:51:39;5.30;99.90
27896;DHT22;15241;48.374;10.876;2022-11-20T23:56:37;5.20;99.90
